createdAt,value
2018-08-22T00:00:54.417Z,1003.26
2018-08-22T00:01:54.423Z,1003.22
2018-08-22T00:02:54.398Z,1003.22
2018-08-22T00:03:54.388Z,1003.21
2018-08-22T00:04:54.373Z,1003.23
2018-08-22T00:05:54.366Z,1003.22
2018-08-22T00:06:54.367Z,1003.20
2018-08-22T00:07:54.340Z,1003.21
2018-08-22T00:08:54.365Z,1003.21
2018-08-22T00:09:54.319Z,1003.20
2018-08-22T00:10:54.315Z,1003.21
2018-08-22T00:11:54.319Z,1003.17
2018-08-22T00:12:54.288Z,1003.12
2018-08-22T00:13:54.274Z,1003.16
2018-08-22T00:14:54.259Z,1003.16
2018-08-22T00:15:54.252Z,1003.15
2018-08-22T00:16:54.267Z,1003.16
2018-08-22T00:17:54.232Z,1003.19
2018-08-22T00:18:54.224Z,1003.17
2018-08-22T00:19:54.220Z,1003.17
2018-08-22T00:20:54.198Z,1003.15
2018-08-22T00:21:54.228Z,1003.16
2018-08-22T00:22:54.182Z,1003.15
2018-08-22T00:23:54.170Z,1003.12
2018-08-22T00:24:54.165Z,1003.23
2018-08-22T00:25:54.211Z,1003.18
2018-08-22T00:26:54.175Z,1003.23
2018-08-22T00:27:54.131Z,1003.11
2018-08-22T00:28:54.143Z,1003.15
2018-08-22T00:29:54.105Z,1003.13
2018-08-22T00:30:54.102Z,1003.15
2018-08-22T00:31:54.179Z,1003.13
2018-08-22T00:32:54.081Z,1003.12
2018-08-22T00:33:54.149Z,1003.11
2018-08-22T00:34:54.045Z,1003.12
2018-08-22T00:35:54.125Z,1003.10
2018-08-22T00:36:54.045Z,1003.08
2018-08-22T00:37:54.013Z,1003.07
2018-08-22T00:38:53.999Z,1003.09
2018-08-22T00:39:53.988Z,1003.05
2018-08-22T00:40:53.980Z,1003.04
2018-08-22T00:41:53.990Z,1003.01
2018-08-22T00:42:53.970Z,1003.03
2018-08-22T00:43:53.967Z,1002.99
2018-08-22T00:44:53.946Z,1003.03
2018-08-22T00:45:53.922Z,1002.99
2018-08-22T00:46:53.937Z,1002.98
2018-08-22T00:47:53.909Z,1002.95
2018-08-22T00:48:53.890Z,1002.97
2018-08-22T00:49:53.886Z,1002.99
2018-08-22T00:50:53.880Z,1003.00
2018-08-22T00:51:53.879Z,1002.99
2018-08-22T00:52:53.850Z,1002.97
2018-08-22T00:53:53.843Z,1003.02
2018-08-22T00:54:53.833Z,1003.01
2018-08-22T00:55:53.823Z,1002.99
2018-08-22T00:56:53.859Z,1003.01
2018-08-22T00:57:53.824Z,1003.00
2018-08-22T00:58:53.784Z,1002.99
2018-08-22T00:59:53.785Z,1003.00
2018-08-22T01:00:53.760Z,1002.97
2018-08-22T01:01:53.775Z,1002.94
2018-08-22T01:02:53.742Z,1002.98
2018-08-22T01:03:53.734Z,1002.99
2018-08-22T01:04:53.746Z,1002.98
2018-08-22T01:05:53.762Z,1003.01
2018-08-22T01:06:53.745Z,1002.98
2018-08-22T01:07:53.690Z,1002.99
2018-08-22T01:08:53.680Z,1003.00
2018-08-22T01:09:53.661Z,1002.98
2018-08-22T01:10:53.653Z,1002.98
2018-08-22T01:11:53.674Z,1002.98
2018-08-22T01:12:53.634Z,1003.01
2018-08-22T01:13:53.628Z,1002.98
2018-08-22T01:14:53.637Z,1002.95
2018-08-22T01:15:53.607Z,1002.95
2018-08-22T01:16:53.742Z,1002.93
2018-08-22T01:17:53.574Z,1002.91
2018-08-22T01:18:53.608Z,1002.95
2018-08-22T01:19:53.557Z,1002.91
2018-08-22T01:20:53.633Z,1002.93
2018-08-22T01:21:53.579Z,1002.93
2018-08-22T01:22:53.570Z,1002.94
2018-08-22T01:23:53.512Z,1002.93
2018-08-22T01:24:53.499Z,1002.96
2018-08-22T01:25:53.496Z,1002.96
2018-08-22T01:26:53.501Z,1002.94
2018-08-22T01:27:53.472Z,1002.92
2018-08-22T01:28:53.467Z,1002.92
2018-08-22T01:29:53.454Z,1002.96
2018-08-22T01:30:53.437Z,1002.90
2018-08-22T01:31:53.445Z,1002.86
2018-08-22T01:32:53.416Z,1002.87
2018-08-22T01:33:53.416Z,1002.88
2018-08-22T01:34:53.399Z,1002.87
2018-08-22T01:35:53.402Z,1002.84
2018-08-22T01:36:53.406Z,1002.83
2018-08-22T01:37:53.358Z,1002.82
2018-08-22T01:38:53.350Z,1002.87
2018-08-22T01:39:53.342Z,1002.86
2018-08-22T01:40:53.344Z,1002.82
2018-08-22T01:41:53.340Z,1002.82
2018-08-22T01:42:53.314Z,1002.86
2018-08-22T01:43:53.316Z,1002.88
2018-08-22T01:44:53.286Z,1002.83
2018-08-22T01:45:53.279Z,1002.84
2018-08-22T01:46:53.285Z,1002.84
2018-08-22T01:47:53.254Z,1002.85
2018-08-22T01:48:53.245Z,1002.89
2018-08-22T01:49:53.228Z,1002.84
2018-08-22T01:50:53.219Z,1002.86
2018-08-22T01:51:53.251Z,1002.84
2018-08-22T01:52:53.217Z,1002.84
2018-08-22T01:53:53.351Z,1002.82
2018-08-22T01:54:53.193Z,1002.85
2018-08-22T01:55:53.268Z,1002.84
2018-08-22T01:56:53.181Z,1002.80
2018-08-22T01:57:53.172Z,1002.79
2018-08-22T01:58:53.182Z,1002.78
2018-08-22T01:59:53.124Z,1002.76
2018-08-22T02:00:53.136Z,1002.77
2018-08-22T02:01:53.105Z,1002.80
2018-08-22T02:02:53.130Z,1002.76
2018-08-22T02:03:53.083Z,1002.77
2018-08-22T02:04:53.075Z,1002.78
2018-08-22T02:05:53.056Z,1002.76
2018-08-22T02:06:53.047Z,1002.71
2018-08-22T02:07:53.087Z,1002.71
2018-08-22T02:08:53.022Z,1002.68
2018-08-22T02:09:53.079Z,1002.66
2018-08-22T02:10:53.017Z,1002.68
2018-08-22T02:11:53.065Z,1002.68
2018-08-22T02:12:53.037Z,1002.68
2018-08-22T02:13:52.977Z,1002.71
2018-08-22T02:14:52.965Z,1002.66
2018-08-22T02:15:52.951Z,1002.68
2018-08-22T02:16:52.942Z,1002.69
2018-08-22T02:17:52.943Z,1002.70
2018-08-22T02:18:52.928Z,1002.72
2018-08-22T02:19:52.916Z,1002.75
2018-08-22T02:20:52.892Z,1002.73
2018-08-22T02:21:52.895Z,1002.73
2018-08-22T02:22:52.900Z,1002.72
2018-08-22T02:23:52.867Z,1002.68
2018-08-22T02:24:52.855Z,1002.74
2018-08-22T02:25:52.852Z,1002.73
2018-08-22T02:26:52.834Z,1002.69
2018-08-22T02:27:52.866Z,1002.74
2018-08-22T02:28:52.813Z,1002.72
2018-08-22T02:29:52.835Z,1002.70
2018-08-22T02:30:52.808Z,1002.72
2018-08-22T02:31:52.777Z,1002.72
2018-08-22T02:32:52.792Z,1002.68
2018-08-22T02:33:52.778Z,1002.69
2018-08-22T02:34:52.746Z,1002.66
2018-08-22T02:35:52.735Z,1002.66
2018-08-22T02:36:52.726Z,1002.67
2018-08-22T02:37:52.713Z,1002.64
2018-08-22T02:38:52.726Z,1002.66
2018-08-22T02:39:52.690Z,1002.64
2018-08-22T02:40:52.675Z,1002.66
2018-08-22T02:41:52.679Z,1002.65
2018-08-22T02:42:52.668Z,1002.65
2018-08-22T02:43:52.646Z,1002.62
2018-08-22T02:44:52.652Z,1002.65
2018-08-22T02:45:52.628Z,1002.58
2018-08-22T02:46:52.616Z,1002.61
2018-08-22T02:47:52.603Z,1002.62
2018-08-22T02:48:52.604Z,1002.57
2018-08-22T02:49:52.597Z,1002.54
2018-08-22T02:50:52.574Z,1002.54
2018-08-22T02:51:52.582Z,1002.63
2018-08-22T02:52:53.174Z,1002.59
2018-08-22T02:53:52.542Z,1002.57
2018-08-22T02:54:52.636Z,1002.56
2018-08-22T02:55:52.516Z,1002.55
2018-08-22T02:56:52.564Z,1002.51
2018-08-22T02:57:52.499Z,1002.51
2018-08-22T02:58:52.603Z,1002.59
2018-08-22T02:59:52.496Z,1002.57
2018-08-22T03:00:52.465Z,1002.59
2018-08-22T03:01:52.451Z,1002.58
2018-08-22T03:02:52.438Z,1002.62
2018-08-22T03:03:52.427Z,1002.58
2018-08-22T03:04:52.440Z,1002.59
2018-08-22T03:05:52.413Z,1002.60
2018-08-22T03:06:52.404Z,1002.54
2018-08-22T03:07:52.428Z,1002.53
2018-08-22T03:08:52.378Z,1002.52
2018-08-22T03:09:52.411Z,1002.55
2018-08-22T03:10:52.352Z,1002.61
2018-08-22T03:11:52.342Z,1002.56
2018-08-22T03:12:52.328Z,1002.53
2018-08-22T03:13:52.339Z,1002.56
2018-08-22T03:14:52.310Z,1002.56
2018-08-22T03:15:52.316Z,1002.59
2018-08-22T03:16:52.284Z,1002.56
2018-08-22T03:17:52.281Z,1002.59
2018-08-22T03:18:52.267Z,1002.53
2018-08-22T03:19:52.259Z,1002.54
2018-08-22T03:20:52.277Z,1002.52
2018-08-22T03:21:52.241Z,1002.54
2018-08-22T03:22:52.222Z,1002.54
2018-08-22T03:23:52.212Z,1002.52
2018-08-22T03:24:52.201Z,1002.50
2018-08-22T03:25:52.213Z,1002.50
2018-08-22T03:26:52.190Z,1002.49
2018-08-22T03:27:52.181Z,1002.47
2018-08-22T03:28:52.181Z,1002.46
2018-08-22T03:29:52.147Z,1002.51
2018-08-22T03:30:52.156Z,1002.52
2018-08-22T03:31:52.127Z,1002.43
2018-08-22T03:32:52.120Z,1002.51
2018-08-22T03:33:52.101Z,1002.51
2018-08-22T03:34:52.092Z,1002.50
2018-08-22T03:35:52.165Z,1002.50
2018-08-22T03:36:52.070Z,1002.51
2018-08-22T03:37:52.092Z,1002.45
2018-08-22T03:38:52.052Z,1002.48
2018-08-22T03:39:52.054Z,1002.43
2018-08-22T03:40:52.056Z,1002.43
2018-08-22T03:41:52.120Z,1002.49
2018-08-22T03:42:52.007Z,1002.49
2018-08-22T03:43:52.045Z,1002.45
2018-08-22T03:44:51.986Z,1002.48
2018-08-22T03:45:52.091Z,1002.46
2018-08-22T03:46:52.013Z,1002.46
2018-08-22T03:47:51.953Z,1002.47
2018-08-22T03:48:51.940Z,1002.48
2018-08-22T03:49:51.935Z,1002.49
2018-08-22T03:50:51.929Z,1002.42
2018-08-22T03:51:51.940Z,1002.42
2018-08-22T03:52:51.903Z,1002.44
2018-08-22T03:53:51.912Z,1002.44
2018-08-22T03:54:51.905Z,1002.39
2018-08-22T03:55:51.870Z,1002.38
2018-08-22T03:56:51.883Z,1002.42
2018-08-22T03:57:51.850Z,1002.40
2018-08-22T03:58:51.846Z,1002.41
2018-08-22T03:59:51.826Z,1002.43
2018-08-22T04:00:51.817Z,1002.39
2018-08-22T04:01:51.800Z,1002.40
2018-08-22T04:02:51.810Z,1002.46
2018-08-22T04:03:51.796Z,1002.43
2018-08-22T04:04:51.789Z,1002.42
2018-08-22T04:05:51.763Z,1002.41
2018-08-22T04:06:51.760Z,1002.42
2018-08-22T04:07:51.773Z,1002.40
2018-08-22T04:08:51.731Z,1002.40
2018-08-22T04:09:51.719Z,1002.37
2018-08-22T04:10:51.713Z,1002.42
2018-08-22T04:11:51.697Z,1002.42
2018-08-22T04:12:51.732Z,1002.41
2018-08-22T04:13:51.681Z,1002.42
2018-08-22T04:14:51.663Z,1002.45
2018-08-22T04:15:51.663Z,1002.41
2018-08-22T04:16:51.642Z,1002.41
2018-08-22T04:17:51.657Z,1002.40
2018-08-22T04:18:51.623Z,1002.46
2018-08-22T04:19:51.663Z,1002.41
2018-08-22T04:20:51.650Z,1002.41
2018-08-22T04:21:51.639Z,1002.39
2018-08-22T04:22:51.625Z,1002.39
2018-08-22T04:23:51.609Z,1002.43
2018-08-22T04:24:51.758Z,1002.46
2018-08-22T04:25:52.753Z,1002.45
2018-08-22T04:26:51.836Z,1002.43
2018-08-22T04:27:51.731Z,1002.46
2018-08-22T04:28:51.946Z,1002.48
2018-08-22T04:29:51.953Z,1002.41
2018-08-22T04:30:51.605Z,1002.45
2018-08-22T04:31:51.506Z,1002.43
2018-08-22T04:32:51.600Z,1002.43
2018-08-22T04:33:51.565Z,1002.42
2018-08-22T04:34:51.713Z,1002.46
2018-08-22T04:35:51.548Z,1002.49
2018-08-22T04:36:51.493Z,1002.43
2018-08-22T04:37:51.599Z,1002.49
2018-08-22T04:38:51.507Z,1002.45
2018-08-22T04:39:51.442Z,1002.47
2018-08-22T04:40:51.391Z,1002.41
2018-08-22T04:41:51.437Z,1002.42
2018-08-22T04:42:51.534Z,1002.43
2018-08-22T04:43:51.386Z,1002.43
2018-08-22T04:44:51.410Z,1002.39
2018-08-22T04:45:51.346Z,1002.40
2018-08-22T04:46:51.368Z,1002.44
2018-08-22T04:47:51.365Z,1002.43
2018-08-22T04:48:51.359Z,1002.47
2018-08-22T04:49:51.604Z,1002.47
2018-08-22T04:50:51.274Z,1002.47
2018-08-22T04:51:51.279Z,1002.43
2018-08-22T04:52:51.354Z,1002.47
2018-08-22T04:53:51.396Z,1002.44
2018-08-22T04:54:51.728Z,1002.41
2018-08-22T04:55:51.282Z,1002.42
2018-08-22T04:56:51.221Z,1002.46
2018-08-22T04:57:51.204Z,1002.47
2018-08-22T04:58:51.188Z,1002.47
2018-08-22T04:59:51.183Z,1002.45
2018-08-22T05:00:51.186Z,1002.42
2018-08-22T05:01:51.161Z,1002.37
2018-08-22T05:02:51.147Z,1002.43
2018-08-22T05:03:51.135Z,1002.41
2018-08-22T05:04:51.225Z,1002.45
2018-08-22T05:05:51.150Z,1002.45
2018-08-22T05:06:51.153Z,1002.42
2018-08-22T05:07:51.085Z,1002.41
2018-08-22T05:08:51.201Z,1002.43
2018-08-22T05:09:51.103Z,1002.38
2018-08-22T05:10:51.523Z,1002.40
2018-08-22T05:11:51.566Z,1002.43
2018-08-22T05:12:51.035Z,1002.41
2018-08-22T05:13:51.148Z,1002.44
2018-08-22T05:14:51.039Z,1002.36
2018-08-22T05:15:51.849Z,1002.35
2018-08-22T05:16:51.255Z,1002.36
2018-08-22T05:17:51.182Z,1002.34
2018-08-22T05:18:51.230Z,1002.34
2018-08-22T05:19:51.272Z,1002.36
2018-08-22T05:20:51.073Z,1002.39
2018-08-22T05:21:50.937Z,1002.36
2018-08-22T05:22:50.925Z,1002.36
2018-08-22T05:23:50.922Z,1002.37
2018-08-22T05:24:50.988Z,1002.36
2018-08-22T05:25:50.902Z,1002.37
2018-08-22T05:26:50.905Z,1002.38
2018-08-22T05:27:50.906Z,1002.36
2018-08-22T05:28:50.878Z,1002.36
2018-08-22T05:29:50.861Z,1002.41
2018-08-22T05:30:51.339Z,1002.42
2018-08-22T05:31:51.347Z,1002.42
2018-08-22T05:32:50.825Z,1002.41
2018-08-22T05:33:50.816Z,1002.50
2018-08-22T05:34:50.851Z,1002.43
2018-08-22T05:35:50.834Z,1002.45
2018-08-22T05:36:50.855Z,1002.40
2018-08-22T05:37:51.067Z,1002.44
2018-08-22T05:38:50.784Z,1002.42
2018-08-22T05:39:51.667Z,1002.47
2018-08-22T05:40:50.819Z,1002.43
2018-08-22T05:41:51.251Z,1002.45
2018-08-22T05:42:51.258Z,1002.44
2018-08-22T05:43:50.897Z,1002.44
2018-08-22T05:44:50.814Z,1002.43
2018-08-22T05:45:50.725Z,1002.40
2018-08-22T05:46:50.665Z,1002.39
2018-08-22T05:47:50.692Z,1002.37
2018-08-22T05:48:51.228Z,1002.36
2018-08-22T05:49:50.786Z,1002.38
2018-08-22T05:50:50.799Z,1002.40
2018-08-22T05:51:50.679Z,1002.40
2018-08-22T05:52:50.849Z,1002.41
2018-08-22T05:53:50.683Z,1002.43
2018-08-22T05:54:50.710Z,1002.41
2018-08-22T05:55:50.786Z,1002.38
2018-08-22T05:56:50.707Z,1002.43
2018-08-22T05:57:50.636Z,1002.42
2018-08-22T05:58:50.631Z,1002.47
2018-08-22T05:59:50.614Z,1002.39
2018-08-22T06:00:50.558Z,1002.39
2018-08-22T06:01:50.729Z,1002.44
2018-08-22T06:02:50.735Z,1002.41
2018-08-22T06:03:50.506Z,1002.39
2018-08-22T06:04:50.584Z,1002.39
2018-08-22T06:05:50.752Z,1002.36
2018-08-22T06:06:50.448Z,1002.42
2018-08-22T06:07:50.456Z,1002.38
2018-08-22T06:08:50.836Z,1002.41
2018-08-22T06:09:50.493Z,1002.43
2018-08-22T06:10:50.442Z,1002.43
2018-08-22T06:11:50.416Z,1002.41
2018-08-22T06:12:50.454Z,1002.43
2018-08-22T06:13:50.414Z,1002.46
2018-08-22T06:14:50.369Z,1002.46
2018-08-22T06:15:50.431Z,1002.44
2018-08-22T06:16:50.349Z,1002.47
2018-08-22T06:17:50.361Z,1002.48
2018-08-22T06:18:50.346Z,1002.45
2018-08-22T06:19:50.363Z,1002.42
2018-08-22T06:20:50.393Z,1002.44
2018-08-22T06:21:50.342Z,1002.42
2018-08-22T06:22:50.280Z,1002.47
2018-08-22T06:23:50.276Z,1002.45
2018-08-22T06:24:50.551Z,1002.46
2018-08-22T06:25:50.383Z,1002.48
2018-08-22T06:26:50.318Z,1002.43
2018-08-22T06:27:50.275Z,1002.46
2018-08-22T06:28:50.219Z,1002.45
2018-08-22T06:29:50.209Z,1002.42
2018-08-22T06:30:50.341Z,1002.39
2018-08-22T06:31:50.241Z,1002.40
2018-08-22T06:32:50.311Z,1002.37
2018-08-22T06:33:50.183Z,1002.41
2018-08-22T06:34:50.183Z,1002.44
2018-08-22T06:35:50.252Z,1002.39
2018-08-22T06:36:50.264Z,1002.41
2018-08-22T06:37:50.290Z,1002.37
2018-08-22T06:38:50.165Z,1002.42
2018-08-22T06:39:50.203Z,1002.39
2018-08-22T06:40:50.356Z,1002.39
2018-08-22T06:41:50.085Z,1002.39
2018-08-22T06:42:50.103Z,1002.42
2018-08-22T06:43:50.109Z,1002.38
2018-08-22T06:44:50.385Z,1002.44
2018-08-22T06:45:50.073Z,1002.45
2018-08-22T06:46:50.237Z,1002.35
2018-08-22T06:47:50.023Z,1002.36
2018-08-22T06:48:50.043Z,1002.38
2018-08-22T06:49:50.024Z,1002.37
2018-08-22T06:50:50.049Z,1002.34
2018-08-22T06:51:50.066Z,1002.34
2018-08-22T06:52:49.981Z,1002.35
2018-08-22T06:53:49.963Z,1002.31
2018-08-22T06:54:49.971Z,1002.33
2018-08-22T06:55:49.997Z,1002.35
2018-08-22T06:56:50.040Z,1002.37
2018-08-22T06:57:49.963Z,1002.32
2018-08-22T06:58:49.999Z,1002.27
2018-08-22T06:59:49.908Z,1002.31
2018-08-22T07:00:49.898Z,1002.30
2018-08-22T07:01:49.894Z,1002.29
2018-08-22T07:02:49.927Z,1002.31
2018-08-22T07:03:49.860Z,1002.29
2018-08-22T07:04:50.129Z,1002.30
2018-08-22T07:05:49.895Z,1002.31
2018-08-22T07:06:49.858Z,1002.32
2018-08-22T07:07:49.826Z,1002.25
2018-08-22T07:08:50.056Z,1002.27
2018-08-22T07:09:49.773Z,1002.21
2018-08-22T07:10:49.770Z,1002.26
2018-08-22T07:11:49.755Z,1002.23
2018-08-22T07:12:50.067Z,1002.25
2018-08-22T07:13:49.757Z,1002.19
2018-08-22T07:14:49.734Z,1002.22
2018-08-22T07:15:49.751Z,1002.19
2018-08-22T07:16:49.703Z,1002.24
2018-08-22T07:17:49.743Z,1002.28
2018-08-22T07:18:49.726Z,1002.23
2018-08-22T07:19:49.728Z,1002.22
2018-08-22T07:20:49.710Z,1002.28
2018-08-22T07:21:49.723Z,1002.24
2018-08-22T07:22:49.742Z,1002.21
2018-08-22T07:23:50.059Z,1002.21
2018-08-22T07:24:49.615Z,1002.24
2018-08-22T07:25:49.633Z,1002.25
2018-08-22T07:26:49.690Z,1002.24
2018-08-22T07:27:49.691Z,1002.22
2018-08-22T07:28:49.630Z,1002.26
2018-08-22T07:29:49.600Z,1002.31
2018-08-22T07:30:49.644Z,1002.26
2018-08-22T07:31:49.552Z,1002.27
2018-08-22T07:32:49.654Z,1002.29
2018-08-22T07:33:49.628Z,1002.28
2018-08-22T07:34:49.525Z,1002.30
2018-08-22T07:35:49.672Z,1002.29
2018-08-22T07:36:49.643Z,1002.29
2018-08-22T07:37:49.505Z,1002.26
2018-08-22T07:38:49.645Z,1002.33
2018-08-22T07:39:49.459Z,1002.28
2018-08-22T07:40:49.758Z,1002.33
2018-08-22T07:41:49.555Z,1002.24
2018-08-22T07:42:49.513Z,1002.27
2018-08-22T07:43:49.487Z,1002.29
2018-08-22T07:44:50.301Z,1002.30
2018-08-22T07:45:49.533Z,1002.34
2018-08-22T07:46:49.408Z,1002.31
2018-08-22T07:47:49.505Z,1002.31
2018-08-22T07:48:49.376Z,1002.32
2018-08-22T07:49:49.399Z,1002.32
2018-08-22T07:50:49.722Z,1002.29
2018-08-22T07:51:49.323Z,1002.30
2018-08-22T07:52:49.351Z,1002.30
2018-08-22T07:53:49.417Z,1002.36
2018-08-22T07:54:49.447Z,1002.30
2018-08-22T07:55:49.420Z,1002.29
2018-08-22T07:56:49.337Z,1002.30
2018-08-22T07:57:49.269Z,1002.25
2018-08-22T07:58:49.310Z,1002.28
2018-08-22T07:59:49.281Z,1002.32
2018-08-22T08:00:49.250Z,1002.28
2018-08-22T08:01:49.247Z,1002.28
2018-08-22T08:02:49.383Z,1002.25
2018-08-22T08:03:49.511Z,1002.19
2018-08-22T08:04:49.324Z,1002.20
2018-08-22T08:05:49.320Z,1002.19
2018-08-22T08:06:49.288Z,1002.21
2018-08-22T08:07:49.203Z,1002.19
2018-08-22T08:08:49.160Z,1002.21
2018-08-22T08:09:49.182Z,1002.23
2018-08-22T08:10:49.144Z,1002.25
2018-08-22T08:11:49.175Z,1002.23
2018-08-22T08:12:49.163Z,1002.18
2018-08-22T08:13:49.266Z,1002.23
2018-08-22T08:14:49.139Z,1002.20
2018-08-22T08:15:49.306Z,1002.25
2018-08-22T08:16:49.068Z,1002.21
2018-08-22T08:17:49.122Z,1002.19
2018-08-22T08:18:49.093Z,1002.19
2018-08-22T08:19:49.087Z,1002.19
2018-08-22T08:20:49.164Z,1002.20
2018-08-22T08:21:49.051Z,1002.24
2018-08-22T08:22:49.002Z,1002.17
2018-08-22T08:23:49.017Z,1002.18
2018-08-22T08:24:49.030Z,1002.24
2018-08-22T08:25:49.028Z,1002.24
2018-08-22T08:26:49.023Z,1002.22
2018-08-22T08:27:49.233Z,1002.27
2018-08-22T08:28:48.963Z,1002.24
2018-08-22T08:29:48.932Z,1002.23
2018-08-22T08:30:49.152Z,1002.22
2018-08-22T08:31:48.902Z,1002.20
2018-08-22T08:32:48.895Z,1002.20
2018-08-22T08:33:48.879Z,1002.19
2018-08-22T08:34:48.942Z,1002.19
2018-08-22T08:35:49.111Z,1002.18
2018-08-22T08:36:48.893Z,1002.20
2018-08-22T08:37:48.890Z,1002.19
2018-08-22T08:38:48.891Z,1002.21
2018-08-22T08:39:48.830Z,1002.16
2018-08-22T08:40:49.231Z,1002.17
2018-08-22T08:41:49.153Z,1002.20
2018-08-22T08:42:48.792Z,1002.17
2018-08-22T08:43:48.809Z,1002.15
2018-08-22T08:44:48.774Z,1002.15
2018-08-22T08:45:48.830Z,1002.19
2018-08-22T08:46:48.804Z,1002.19
2018-08-22T08:47:48.744Z,1002.22
2018-08-22T08:48:48.725Z,1002.15
2018-08-22T08:49:48.872Z,1002.16
2018-08-22T08:50:48.824Z,1002.18
2018-08-22T08:51:49.144Z,1002.19
2018-08-22T08:52:48.780Z,1002.17
2018-08-22T08:53:48.834Z,1002.17
2018-08-22T08:54:48.745Z,1002.14
2018-08-22T08:55:48.661Z,1002.13
2018-08-22T08:56:48.708Z,1002.13
2018-08-22T08:57:48.666Z,1002.09
2018-08-22T08:58:48.713Z,1002.12
2018-08-22T08:59:48.676Z,1002.10
2018-08-22T09:00:48.620Z,1002.09
2018-08-22T09:01:48.772Z,1002.10
2018-08-22T09:02:48.592Z,1002.12
2018-08-22T09:03:48.582Z,1002.15
2018-08-22T09:04:48.694Z,1002.15
2018-08-22T09:05:48.644Z,1002.14
2018-08-22T09:06:48.586Z,1002.06
2018-08-22T09:07:48.527Z,1002.08
2018-08-22T09:08:48.519Z,1002.05
2018-08-22T09:09:48.511Z,1001.99
2018-08-22T09:10:48.550Z,1001.97
2018-08-22T09:11:48.488Z,1001.93
2018-08-22T09:12:48.480Z,1001.96
2018-08-22T09:13:48.555Z,1001.93
2018-08-22T09:14:48.460Z,1001.95
2018-08-22T09:15:48.519Z,1001.91
2018-08-22T09:16:48.865Z,1001.90
2018-08-22T09:17:48.498Z,1001.93
2018-08-22T09:18:48.401Z,1001.96
2018-08-22T09:19:48.587Z,1001.93
2018-08-22T09:20:48.658Z,1001.97
2018-08-22T09:21:48.478Z,1001.96
2018-08-22T09:22:48.393Z,1001.93
2018-08-22T09:23:48.381Z,1001.92
2018-08-22T09:24:48.346Z,1001.91
2018-08-22T09:25:48.344Z,1001.90
2018-08-22T09:26:48.430Z,1001.90
2018-08-22T09:27:48.363Z,1001.87
2018-08-22T09:28:48.405Z,1001.89
2018-08-22T09:29:48.382Z,1001.90
2018-08-22T09:30:48.285Z,1001.87
2018-08-22T09:31:48.268Z,1001.87
2018-08-22T09:32:48.252Z,1001.86
2018-08-22T09:33:48.378Z,1001.86
2018-08-22T09:34:48.343Z,1001.82
2018-08-22T09:35:48.233Z,1001.82
2018-08-22T09:36:48.269Z,1001.80
2018-08-22T09:37:48.313Z,1001.82
2018-08-22T09:38:48.241Z,1001.82
2018-08-22T09:39:48.293Z,1001.78
2018-08-22T09:40:48.178Z,1001.73
2018-08-22T09:41:48.175Z,1001.76
2018-08-22T09:42:48.164Z,1001.78
2018-08-22T09:43:48.207Z,1001.77
2018-08-22T09:44:48.269Z,1001.76
2018-08-22T09:45:48.115Z,1001.75
2018-08-22T09:46:48.216Z,1001.73
2018-08-22T09:47:48.129Z,1001.73
2018-08-22T09:48:48.208Z,1001.75
2018-08-22T09:49:48.099Z,1001.75
2018-08-22T09:50:48.132Z,1001.73
2018-08-22T09:51:48.091Z,1001.74
2018-08-22T09:52:48.118Z,1001.73
2018-08-22T09:53:48.149Z,1001.68
2018-08-22T09:54:48.069Z,1001.72
2018-08-22T09:55:48.075Z,1001.72
2018-08-22T09:56:48.165Z,1001.67
2018-08-22T09:57:47.988Z,1001.67
2018-08-22T09:58:48.016Z,1001.64
2018-08-22T09:59:48.119Z,1001.66
2018-08-22T10:00:48.053Z,1001.61
2018-08-22T10:01:47.992Z,1001.63
2018-08-22T10:02:47.956Z,1001.65
2018-08-22T10:03:47.953Z,1001.58
2018-08-22T10:04:47.954Z,1001.63
2018-08-22T10:05:47.923Z,1001.63
2018-08-22T10:06:47.999Z,1001.61
2018-08-22T10:07:47.893Z,1001.59
2018-08-22T10:08:47.886Z,1001.52
2018-08-22T10:09:47.916Z,1001.52
2018-08-22T10:10:47.967Z,1001.49
2018-08-22T10:11:47.929Z,1001.52
2018-08-22T10:12:47.851Z,1001.54
2018-08-22T10:13:47.894Z,1001.50
2018-08-22T10:14:47.909Z,1001.47
2018-08-22T10:15:47.842Z,1001.49
2018-08-22T10:16:47.900Z,1001.48
2018-08-22T10:17:47.918Z,1001.46
2018-08-22T10:18:47.909Z,1001.45
2018-08-22T10:19:47.759Z,1001.43
2018-08-22T10:20:47.766Z,1001.37
2018-08-22T10:21:47.743Z,1001.40
2018-08-22T10:22:47.728Z,1001.44
2018-08-22T10:23:47.746Z,1001.39
2018-08-22T10:24:47.718Z,1001.38
2018-08-22T10:25:47.742Z,1001.36
2018-08-22T10:26:47.685Z,1001.36
2018-08-22T10:27:47.687Z,1001.34
2018-08-22T10:28:47.743Z,1001.29
2018-08-22T10:29:48.186Z,1001.31
2018-08-22T10:30:47.853Z,1001.35
2018-08-22T10:31:47.721Z,1001.35
2018-08-22T10:32:47.750Z,1001.36
2018-08-22T10:33:47.670Z,1001.38
2018-08-22T10:34:47.602Z,1001.38
2018-08-22T10:35:47.582Z,1001.42
2018-08-22T10:36:47.603Z,1001.43
2018-08-22T10:37:47.822Z,1001.42
2018-08-22T10:38:47.578Z,1001.40
2018-08-22T10:39:47.587Z,1001.39
2018-08-22T10:40:47.632Z,1001.45
2018-08-22T10:41:47.629Z,1001.42
2018-08-22T10:42:47.605Z,1001.42
2018-08-22T10:43:47.524Z,1001.37
2018-08-22T10:44:47.577Z,1001.34
2018-08-22T10:45:47.706Z,1001.32
2018-08-22T10:46:47.475Z,1001.29
2018-08-22T10:47:47.487Z,1001.29
2018-08-22T10:48:47.479Z,1001.26
2018-08-22T10:49:47.459Z,1001.32
2018-08-22T10:50:47.442Z,1001.28
2018-08-22T10:51:47.563Z,1001.32
2018-08-22T10:52:47.923Z,1001.31
2018-08-22T10:53:47.431Z,1001.32
2018-08-22T10:54:48.001Z,1001.34
2018-08-22T10:55:47.383Z,1001.31
2018-08-22T10:56:47.506Z,1001.26
2018-08-22T10:57:47.398Z,1001.27
2018-08-22T10:58:47.471Z,1001.24
2018-08-22T10:59:47.504Z,1001.29
2018-08-22T11:00:47.501Z,1001.33
2018-08-22T11:01:47.391Z,1001.31
2018-08-22T11:02:47.382Z,1001.35
2018-08-22T11:03:47.349Z,1001.30
2018-08-22T11:04:47.346Z,1001.32
2018-08-22T11:05:47.341Z,1001.30
2018-08-22T11:06:47.271Z,1001.29
2018-08-22T11:07:47.264Z,1001.24
2018-08-22T11:08:47.282Z,1001.29
2018-08-22T11:09:47.242Z,1001.24
2018-08-22T11:10:47.231Z,1001.19
2018-08-22T11:11:47.222Z,1001.12
2018-08-22T11:12:47.242Z,1001.06
2018-08-22T11:13:47.199Z,1001.12
2018-08-22T11:14:47.268Z,1001.21
2018-08-22T11:15:47.205Z,1001.29
2018-08-22T11:16:47.184Z,1001.39
2018-08-22T11:17:47.243Z,1001.54
2018-08-22T11:18:47.155Z,1001.51
2018-08-22T11:19:47.153Z,1001.45
2018-08-22T11:20:47.187Z,1001.11
2018-08-22T11:21:47.119Z,1001.06
2018-08-22T11:22:47.232Z,1001.01
2018-08-22T11:23:47.098Z,1001.18
2018-08-22T11:24:47.129Z,1001.42
2018-08-22T11:25:47.092Z,1001.46
2018-08-22T11:26:47.110Z,1001.55
2018-08-22T11:27:47.141Z,1001.54
2018-08-22T11:28:47.111Z,1001.56
2018-08-22T11:29:47.106Z,1001.60
2018-08-22T11:30:47.115Z,1001.55
2018-08-22T11:31:47.144Z,1001.59
2018-08-22T11:32:47.006Z,1001.54
2018-08-22T11:33:46.998Z,1001.59
2018-08-22T11:34:47.030Z,1001.56
2018-08-22T11:35:46.980Z,1001.62
2018-08-22T11:36:46.984Z,1001.59
2018-08-22T11:37:46.954Z,1001.64
2018-08-22T11:38:46.943Z,1001.63
2018-08-22T11:39:47.313Z,1001.20
2018-08-22T11:40:46.935Z,1001.12
2018-08-22T11:41:46.964Z,1001.17
2018-08-22T11:42:46.920Z,1001.09
2018-08-22T11:43:46.919Z,1001.08
2018-08-22T11:44:46.900Z,1001.08
2018-08-22T11:45:46.944Z,1001.04
2018-08-22T11:46:46.901Z,1001.26
2018-08-22T11:47:46.939Z,1001.51
2018-08-22T11:48:46.854Z,1001.54
2018-08-22T11:49:46.853Z,1001.16
2018-08-22T11:50:46.861Z,1001.03
2018-08-22T11:51:46.832Z,1001.02
2018-08-22T11:52:46.813Z,1001.04
2018-08-22T11:53:46.804Z,1001.15
2018-08-22T11:54:46.796Z,1001.19
2018-08-22T11:55:46.804Z,1001.51
2018-08-22T11:56:46.796Z,1001.62
2018-08-22T11:57:46.834Z,1001.22
2018-08-22T11:58:46.998Z,1001.09
2018-08-22T11:59:46.830Z,1001.08
2018-08-22T12:00:47.227Z,1001.03
2018-08-22T12:01:46.731Z,1000.99
2018-08-22T12:02:46.825Z,1001.03
2018-08-22T12:03:46.729Z,1001.07
2018-08-22T12:04:46.792Z,1001.52
2018-08-22T12:05:46.689Z,1001.55